sensor_id;sensor_type;location;lat;lon;timestamp;pressure;altitude;pressure_sealevel;temperature;humidity
45991;BME280;31721;41.740;-88.000;2023-04-07T00:00:40;100261.21;;;10.56;25.43
45991;BME280;31721;41.740;-88.000;2023-04-07T00:03:08;100259.14;;;10.57;25.39
45991;BME280;31721;41.740;-88.000;2023-04-07T00:05:36;100260.02;;;10.66;25.44
45991;BME280;31721;41.740;-88.000;2023-04-07T00:08:05;100263.48;;;10.43;25.73
45991;BME280;31721;41.740;-88.000;2023-04-07T00:10:32;100261.04;;;10.43;25.69
45991;BME280;31721;41.740;-88.000;2023-04-07T00:13:00;100265.95;;;10.44;25.79
45991;BME280;31721;41.740;-88.000;2023-04-07T00:15:28;100268.82;;;10.30;25.74
45991;BME280;31721;41.740;-88.000;2023-04-07T00:17:57;100272.92;;;10.02;25.82
45991;BME280;31721;41.740;-88.000;2023-04-07T00:20:25;100272.01;;;10.21;25.77
45991;BME280;31721;41.740;-88.000;2023-04-07T00:22:53;100273.81;;;10.01;26.06
45991;BME280;31721;41.740;-88.000;2023-04-07T00:25:21;100277.01;;;9.88;26.15
45991;BME280;31721;41.740;-88.000;2023-04-07T00:27:49;100278.23;;;9.94;26.31
45991;BME280;31721;41.740;-88.000;2023-04-07T00:30:18;100280.89;;;9.91;26.38
45991;BME280;31721;41.740;-88.000;2023-04-07T00:32:45;100279.85;;;9.99;26.30
45991;BME280;31721;41.740;-88.000;2023-04-07T00:35:13;100281.97;;;9.78;26.67
45991;BME280;31721;41.740;-88.000;2023-04-07T00:37:42;100287.77;;;9.67;26.73
45991;BME280;31721;41.740;-88.000;2023-04-07T00:40:10;100290.07;;;9.57;26.71
45991;BME280;31721;41.740;-88.000;2023-04-07T00:42:38;100291.03;;;9.37;26.75
45991;BME280;31721;41.740;-88.000;2023-04-07T00:45:07;100293.82;;;9.56;26.86
45991;BME280;31721;41.740;-88.000;2023-04-07T00:47:35;100295.83;;;9.42;27.08
45991;BME280;31721;41.740;-88.000;2023-04-07T00:50:05;100295.05;;;9.31;26.94
45991;BME280;31721;41.740;-88.000;2023-04-07T00:52:33;100293.82;;;9.31;26.99
45991;BME280;31721;41.740;-88.000;2023-04-07T00:55:01;100294.13;;;9.28;26.82
45991;BME280;31721;41.740;-88.000;2023-04-07T00:57:29;100297.61;;;9.24;27.05
45991;BME280;31721;41.740;-88.000;2023-04-07T00:59:58;100300.39;;;9.25;27.26
45991;BME280;31721;41.740;-88.000;2023-04-07T01:02:31;100303.99;;;9.29;27.19
45991;BME280;31721;41.740;-88.000;2023-04-07T01:05:08;100305.40;;;9.36;27.23
45991;BME280;31721;41.740;-88.000;2023-04-07T01:07:57;100308.34;;;9.28;27.25
45991;BME280;31721;41.740;-88.000;2023-04-07T01:10:34;100308.84;;;9.25;27.33
45991;BME280;31721;41.740;-88.000;2023-04-07T01:13:09;100308.43;;;9.36;27.23
45991;BME280;31721;41.740;-88.000;2023-04-07T01:15:41;100305.62;;;9.19;27.43
45991;BME280;31721;41.740;-88.000;2023-04-07T01:18:14;100307.00;;;9.16;27.59
45991;BME280;31721;41.740;-88.000;2023-04-07T01:20:45;100308.74;;;9.15;27.54
45991;BME280;31721;41.740;-88.000;2023-04-07T01:23:21;100305.93;;;9.31;27.59
45991;BME280;31721;41.740;-88.000;2023-04-07T01:26:16;100305.12;;;9.20;27.60
45991;BME280;31721;41.740;-88.000;2023-04-07T01:29:06;100306.14;;;9.25;27.68
45991;BME280;31721;41.740;-88.000;2023-04-07T01:31:40;100307.73;;;9.19;27.75
45991;BME280;31721;41.740;-88.000;2023-04-07T01:34:09;100308.65;;;9.25;27.99
45991;BME280;31721;41.740;-88.000;2023-04-07T01:36:38;100316.75;;;9.09;28.12
45991;BME280;31721;41.740;-88.000;2023-04-07T01:39:06;100319.53;;;8.97;28.30
45991;BME280;31721;41.740;-88.000;2023-04-07T01:41:37;100323.06;;;9.05;28.37
45991;BME280;31721;41.740;-88.000;2023-04-07T01:44:06;100322.16;;;9.13;28.36
45991;BME280;31721;41.740;-88.000;2023-04-07T01:46:35;100324.78;;;9.10;28.38
45991;BME280;31721;41.740;-88.000;2023-04-07T01:49:04;100329.49;;;8.99;28.42
45991;BME280;31721;41.740;-88.000;2023-04-07T01:51:33;100332.76;;;8.78;28.51
45991;BME280;31721;41.740;-88.000;2023-04-07T01:54:02;100334.03;;;8.77;28.75
45991;BME280;31721;41.740;-88.000;2023-04-07T01:56:31;100336.16;;;8.75;28.94
45991;BME280;31721;41.740;-88.000;2023-04-07T01:58:59;100340.05;;;8.85;28.89
45991;BME280;31721;41.740;-88.000;2023-04-07T02:01:26;100345.19;;;8.70;29.13
45991;BME280;31721;41.740;-88.000;2023-04-07T02:04:01;100350.50;;;8.54;29.22
45991;BME280;31721;41.740;-88.000;2023-04-07T02:06:35;100350.52;;;8.51;29.36
45991;BME280;31721;41.740;-88.000;2023-04-07T02:09:07;100350.57;;;8.50;29.47
45991;BME280;31721;41.740;-88.000;2023-04-07T02:11:39;100354.11;;;8.31;29.49
45991;BME280;31721;41.740;-88.000;2023-04-07T02:14:10;100354.89;;;8.34;29.45
45991;BME280;31721;41.740;-88.000;2023-04-07T02:16:40;100357.94;;;8.25;29.75
45991;BME280;31721;41.740;-88.000;2023-04-07T02:19:09;100351.19;;;8.32;29.65
45991;BME280;31721;41.740;-88.000;2023-04-07T02:21:39;100355.15;;;8.36;29.82
45991;BME280;31721;41.740;-88.000;2023-04-07T02:24:11;100357.29;;;8.07;29.71
45991;BME280;31721;41.740;-88.000;2023-04-07T02:26:38;100359.68;;;7.94;30.00
45991;BME280;31721;41.740;-88.000;2023-04-07T02:29:07;100361.50;;;7.93;30.42
45991;BME280;31721;41.740;-88.000;2023-04-07T02:31:34;100366.55;;;7.95;30.32
45991;BME280;31721;41.740;-88.000;2023-04-07T02:34:01;100368.96;;;7.88;30.59
45991;BME280;31721;41.740;-88.000;2023-04-07T02:36:29;100379.22;;;7.92;30.67
45991;BME280;31721;41.740;-88.000;2023-04-07T02:38:57;100381.58;;;8.04;30.63
45991;BME280;31721;41.740;-88.000;2023-04-07T02:41:25;100382.09;;;7.84;30.59
45991;BME280;31721;41.740;-88.000;2023-04-07T02:43:52;100386.64;;;7.78;30.72
45991;BME280;31721;41.740;-88.000;2023-04-07T02:46:20;100390.18;;;7.74;30.87
45991;BME280;31721;41.740;-88.000;2023-04-07T02:48:48;100394.52;;;7.73;30.84
45991;BME280;31721;41.740;-88.000;2023-04-07T02:51:15;100394.24;;;7.59;31.04
45991;BME280;31721;41.740;-88.000;2023-04-07T02:53:43;100392.24;;;7.49;31.19
45991;BME280;31721;41.740;-88.000;2023-04-07T02:56:10;100394.89;;;7.46;31.25
45991;BME280;31721;41.740;-88.000;2023-04-07T02:58:38;100394.39;;;7.43;31.42
45991;BME280;31721;41.740;-88.000;2023-04-07T03:01:06;100395.16;;;7.38;31.59
45991;BME280;31721;41.740;-88.000;2023-04-07T03:03:34;100397.27;;;7.37;32.01
45991;BME280;31721;41.740;-88.000;2023-04-07T03:06:01;100399.36;;;7.34;32.04
45991;BME280;31721;41.740;-88.000;2023-04-07T03:08:29;100403.81;;;7.33;32.32
45991;BME280;31721;41.740;-88.000;2023-04-07T03:10:57;100407.61;;;7.23;32.27
45991;BME280;31721;41.740;-88.000;2023-04-07T03:13:25;100409.51;;;7.42;31.94
45991;BME280;31721;41.740;-88.000;2023-04-07T03:15:53;100410.83;;;7.52;31.95
45991;BME280;31721;41.740;-88.000;2023-04-07T03:18:21;100409.90;;;7.36;32.04
45991;BME280;31721;41.740;-88.000;2023-04-07T03:20:49;100411.95;;;7.47;32.09
45991;BME280;31721;41.740;-88.000;2023-04-07T03:23:17;100409.76;;;7.44;32.05
45991;BME280;31721;41.740;-88.000;2023-04-07T03:25:45;100412.58;;;7.33;32.24
45991;BME280;31721;41.740;-88.000;2023-04-07T03:28:13;100416.15;;;7.42;32.07
45991;BME280;31721;41.740;-88.000;2023-04-07T03:30:41;100421.51;;;7.42;31.99
45991;BME280;31721;41.740;-88.000;2023-04-07T03:33:09;100420.70;;;7.54;31.94
45991;BME280;31721;41.740;-88.000;2023-04-07T03:35:37;100422.49;;;7.31;32.00
45991;BME280;31721;41.740;-88.000;2023-04-07T03:38:05;100426.95;;;7.24;32.25
45991;BME280;31721;41.740;-88.000;2023-04-07T03:40:32;100430.60;;;7.09;32.35
45991;BME280;31721;41.740;-88.000;2023-04-07T03:43:00;100434.24;;;7.05;32.76
45991;BME280;31721;41.740;-88.000;2023-04-07T03:45:27;100429.07;;;7.00;32.79
45991;BME280;31721;41.740;-88.000;2023-04-07T03:47:55;100429.84;;;6.93;32.84
45991;BME280;31721;41.740;-88.000;2023-04-07T03:50:23;100432.33;;;6.81;32.99
45991;BME280;31721;41.740;-88.000;2023-04-07T03:52:50;100433.60;;;6.75;33.07
45991;BME280;31721;41.740;-88.000;2023-04-07T03:55:18;100432.56;;;6.80;33.32
45991;BME280;31721;41.740;-88.000;2023-04-07T03:57:46;100433.32;;;6.90;33.22
45991;BME280;31721;41.740;-88.000;2023-04-07T04:00:14;100433.39;;;6.88;32.96
45991;BME280;31721;41.740;-88.000;2023-04-07T04:02:42;100438.71;;;6.79;33.06
45991;BME280;31721;41.740;-88.000;2023-04-07T04:05:10;100443.48;;;6.72;33.11
45991;BME280;31721;41.740;-88.000;2023-04-07T04:07:38;100446.08;;;6.64;33.24
45991;BME280;31721;41.740;-88.000;2023-04-07T04:10:06;100444.29;;;6.51;33.50
45991;BME280;31721;41.740;-88.000;2023-04-07T04:12:34;100450.70;;;6.45;33.61
45991;BME280;31721;41.740;-88.000;2023-04-07T04:15:03;100454.43;;;6.48;33.76
45991;BME280;31721;41.740;-88.000;2023-04-07T04:17:31;100459.51;;;6.37;33.87
45991;BME280;31721;41.740;-88.000;2023-04-07T04:19:58;100461.91;;;6.36;33.81
45991;BME280;31721;41.740;-88.000;2023-04-07T04:22:26;100465.15;;;6.51;33.96
45991;BME280;31721;41.740;-88.000;2023-04-07T04:24:54;100465.87;;;6.41;33.83
45991;BME280;31721;41.740;-88.000;2023-04-07T04:27:22;100466.56;;;6.38;33.92
45991;BME280;31721;41.740;-88.000;2023-04-07T04:29:50;100464.05;;;6.33;34.00
45991;BME280;31721;41.740;-88.000;2023-04-07T04:32:17;100461.90;;;6.30;34.06
45991;BME280;31721;41.740;-88.000;2023-04-07T04:34:45;100461.47;;;6.26;34.15
45991;BME280;31721;41.740;-88.000;2023-04-07T04:37:12;100457.79;;;6.21;34.42
45991;BME280;31721;41.740;-88.000;2023-04-07T04:39:40;100458.67;;;6.14;34.27
45991;BME280;31721;41.740;-88.000;2023-04-07T04:42:08;100459.71;;;6.08;34.45
45991;BME280;31721;41.740;-88.000;2023-04-07T04:44:35;100461.06;;;6.10;34.56
45991;BME280;31721;41.740;-88.000;2023-04-07T04:47:03;100459.30;;;5.95;34.56
45991;BME280;31721;41.740;-88.000;2023-04-07T04:49:31;100461.35;;;5.91;34.78
45991;BME280;31721;41.740;-88.000;2023-04-07T04:51:58;100457.82;;;5.93;34.85
45991;BME280;31721;41.740;-88.000;2023-04-07T04:54:26;100460.46;;;5.81;34.84
45991;BME280;31721;41.740;-88.000;2023-04-07T04:56:54;100461.43;;;5.79;35.17
45991;BME280;31721;41.740;-88.000;2023-04-07T04:59:21;100461.68;;;5.81;35.03
45991;BME280;31721;41.740;-88.000;2023-04-07T05:01:49;100467.00;;;5.71;35.18
45991;BME280;31721;41.740;-88.000;2023-04-07T05:04:17;100469.22;;;5.66;35.07
45991;BME280;31721;41.740;-88.000;2023-04-07T05:06:44;100472.17;;;5.62;35.22
45991;BME280;31721;41.740;-88.000;2023-04-07T05:09:12;100471.38;;;5.56;35.30
45991;BME280;31721;41.740;-88.000;2023-04-07T05:11:40;100473.52;;;5.51;35.21
45991;BME280;31721;41.740;-88.000;2023-04-07T05:14:08;100474.51;;;5.19;34.94
45991;BME280;31721;41.740;-88.000;2023-04-07T05:16:35;100474.08;;;5.18;35.82
45991;BME280;31721;41.740;-88.000;2023-04-07T05:19:03;100474.20;;;5.16;36.09
45991;BME280;31721;41.740;-88.000;2023-04-07T05:21:30;100475.77;;;5.07;35.88
45991;BME280;31721;41.740;-88.000;2023-04-07T05:23:58;100478.21;;;5.03;36.02
45991;BME280;31721;41.740;-88.000;2023-04-07T05:26:25;100480.46;;;4.94;36.12
45991;BME280;31721;41.740;-88.000;2023-04-07T05:28:53;100482.69;;;5.03;36.30
45991;BME280;31721;41.740;-88.000;2023-04-07T05:31:20;100484.13;;;5.00;36.28
45991;BME280;31721;41.740;-88.000;2023-04-07T05:33:48;100486.00;;;4.97;36.15
45991;BME280;31721;41.740;-88.000;2023-04-07T05:36:16;100487.66;;;4.93;36.19
45991;BME280;31721;41.740;-88.000;2023-04-07T05:38:44;100488.97;;;4.89;36.36
45991;BME280;31721;41.740;-88.000;2023-04-07T05:41:12;100492.23;;;4.85;36.40
45991;BME280;31721;41.740;-88.000;2023-04-07T05:43:40;100500.22;;;4.80;36.57
45991;BME280;31721;41.740;-88.000;2023-04-07T05:46:07;100499.15;;;4.74;36.50
45991;BME280;31721;41.740;-88.000;2023-04-07T05:48:35;100500.28;;;4.78;36.87
45991;BME280;31721;41.740;-88.000;2023-04-07T05:51:02;100499.41;;;4.68;37.22
45991;BME280;31721;41.740;-88.000;2023-04-07T05:53:31;100501.61;;;4.56;37.15
45991;BME280;31721;41.740;-88.000;2023-04-07T05:55:59;100507.27;;;4.60;37.14
45991;BME280;31721;41.740;-88.000;2023-04-07T05:58:27;100513.91;;;4.57;37.24
45991;BME280;31721;41.740;-88.000;2023-04-07T06:00:54;100517.34;;;4.55;37.42
45991;BME280;31721;41.740;-88.000;2023-04-07T06:03:22;100521.13;;;4.62;37.29
45991;BME280;31721;41.740;-88.000;2023-04-07T06:05:49;100524.47;;;4.55;37.42
45991;BME280;31721;41.740;-88.000;2023-04-07T06:08:17;100530.81;;;4.46;37.36
45991;BME280;31721;41.740;-88.000;2023-04-07T06:10:44;100528.51;;;4.31;37.41
45991;BME280;31721;41.740;-88.000;2023-04-07T06:13:13;100523.20;;;4.24;37.61
45991;BME280;31721;41.740;-88.000;2023-04-07T06:15:40;100524.54;;;4.09;37.60
45991;BME280;31721;41.740;-88.000;2023-04-07T06:18:08;100523.25;;;4.19;37.83
45991;BME280;31721;41.740;-88.000;2023-04-07T06:20:35;100525.95;;;4.04;37.89
45991;BME280;31721;41.740;-88.000;2023-04-07T06:23:03;100527.23;;;3.93;38.04
45991;BME280;31721;41.740;-88.000;2023-04-07T06:25:30;100532.54;;;3.90;38.14
45991;BME280;31721;41.740;-88.000;2023-04-07T06:27:58;100533.55;;;3.92;38.40
45991;BME280;31721;41.740;-88.000;2023-04-07T06:30:26;100543.13;;;3.80;38.44
45991;BME280;31721;41.740;-88.000;2023-04-07T06:32:53;100553.89;;;3.74;38.50
45991;BME280;31721;41.740;-88.000;2023-04-07T06:35:21;100551.63;;;3.72;38.42
45991;BME280;31721;41.740;-88.000;2023-04-07T06:37:48;100555.25;;;3.70;38.79
45991;BME280;31721;41.740;-88.000;2023-04-07T06:40:16;100556.90;;;3.54;38.62
45991;BME280;31721;41.740;-88.000;2023-04-07T06:42:44;100554.35;;;3.58;38.86
45991;BME280;31721;41.740;-88.000;2023-04-07T06:45:11;100551.44;;;3.56;38.96
45991;BME280;31721;41.740;-88.000;2023-04-07T06:47:39;100550.31;;;3.56;39.02
45991;BME280;31721;41.740;-88.000;2023-04-07T06:50:07;100549.98;;;3.54;39.01
45991;BME280;31721;41.740;-88.000;2023-04-07T06:52:36;100549.65;;;3.47;39.29
45991;BME280;31721;41.740;-88.000;2023-04-07T06:55:05;100545.57;;;3.53;39.16
45991;BME280;31721;41.740;-88.000;2023-04-07T06:57:33;100545.87;;;3.51;39.37
45991;BME280;31721;41.740;-88.000;2023-04-07T07:00:00;100550.38;;;3.49;39.26
45991;BME280;31721;41.740;-88.000;2023-04-07T07:02:28;100554.15;;;3.47;39.25
45991;BME280;31721;41.740;-88.000;2023-04-07T07:04:55;100559.49;;;3.50;39.16
45991;BME280;31721;41.740;-88.000;2023-04-07T07:07:23;100559.62;;;3.38;39.28
45991;BME280;31721;41.740;-88.000;2023-04-07T07:09:50;100562.53;;;3.31;39.27
45991;BME280;31721;41.740;-88.000;2023-04-07T07:12:19;100560.71;;;3.31;39.48
45991;BME280;31721;41.740;-88.000;2023-04-07T07:14:46;100559.61;;;3.29;39.33
45991;BME280;31721;41.740;-88.000;2023-04-07T07:17:14;100559.95;;;3.43;39.53
45991;BME280;31721;41.740;-88.000;2023-04-07T07:19:41;100563.04;;;3.26;39.54
45991;BME280;31721;41.740;-88.000;2023-04-07T07:22:10;100564.94;;;3.33;39.64
45991;BME280;31721;41.740;-88.000;2023-04-07T07:24:37;100568.44;;;3.24;39.54
45991;BME280;31721;41.740;-88.000;2023-04-07T07:27:05;100568.61;;;3.18;39.42
45991;BME280;31721;41.740;-88.000;2023-04-07T07:29:32;100570.23;;;3.14;39.53
45991;BME280;31721;41.740;-88.000;2023-04-07T07:32:00;100574.37;;;3.10;39.62
45991;BME280;31721;41.740;-88.000;2023-04-07T07:34:28;100572.89;;;3.19;39.76
45991;BME280;31721;41.740;-88.000;2023-04-07T07:36:56;100574.48;;;3.09;39.91
45991;BME280;31721;41.740;-88.000;2023-04-07T07:39:23;100570.70;;;3.17;39.99
45991;BME280;31721;41.740;-88.000;2023-04-07T07:41:51;100572.18;;;3.18;39.94
45991;BME280;31721;41.740;-88.000;2023-04-07T07:44:19;100572.33;;;3.17;39.93
45991;BME280;31721;41.740;-88.000;2023-04-07T07:46:46;100577.60;;;3.04;39.94
45991;BME280;31721;41.740;-88.000;2023-04-07T07:49:14;100582.13;;;3.16;39.85
45991;BME280;31721;41.740;-88.000;2023-04-07T07:51:41;100590.04;;;3.08;39.90
45991;BME280;31721;41.740;-88.000;2023-04-07T07:54:09;100591.39;;;3.05;39.81
45991;BME280;31721;41.740;-88.000;2023-04-07T07:56:37;100591.78;;;3.07;40.03
45991;BME280;31721;41.740;-88.000;2023-04-07T07:59:05;100594.11;;;3.05;40.20
45991;BME280;31721;41.740;-88.000;2023-04-07T08:01:32;100596.19;;;3.00;40.28
45991;BME280;31721;41.740;-88.000;2023-04-07T08:04:00;100601.08;;;2.98;40.21
45991;BME280;31721;41.740;-88.000;2023-04-07T08:06:27;100601.03;;;2.92;40.23
45991;BME280;31721;41.740;-88.000;2023-04-07T08:08:55;100603.33;;;2.84;40.52
45991;BME280;31721;41.740;-88.000;2023-04-07T08:11:22;100605.45;;;2.81;40.44
45991;BME280;31721;41.740;-88.000;2023-04-07T08:13:50;100608.90;;;2.87;40.55
45991;BME280;31721;41.740;-88.000;2023-04-07T08:16:17;100613.01;;;2.87;40.68
45991;BME280;31721;41.740;-88.000;2023-04-07T08:18:46;100616.50;;;2.81;40.71
45991;BME280;31721;41.740;-88.000;2023-04-07T08:21:13;100620.92;;;2.80;40.63
45991;BME280;31721;41.740;-88.000;2023-04-07T08:23:41;100618.96;;;2.76;40.80
45991;BME280;31721;41.740;-88.000;2023-04-07T08:26:09;100612.85;;;2.74;40.94
45991;BME280;31721;41.740;-88.000;2023-04-07T08:28:36;100610.70;;;2.70;40.98
45991;BME280;31721;41.740;-88.000;2023-04-07T08:31:04;100608.81;;;2.66;40.90
45991;BME280;31721;41.740;-88.000;2023-04-07T08:33:31;100603.52;;;2.63;40.91
45991;BME280;31721;41.740;-88.000;2023-04-07T08:35:59;100594.89;;;2.64;40.90
45991;BME280;31721;41.740;-88.000;2023-04-07T08:38:27;100597.28;;;2.64;40.92
45991;BME280;31721;41.740;-88.000;2023-04-07T08:41:05;100602.64;;;2.60;41.00
45991;BME280;31721;41.740;-88.000;2023-04-07T08:43:34;100604.51;;;2.56;40.85
45991;BME280;31721;41.740;-88.000;2023-04-07T08:46:02;100606.93;;;2.55;40.83
45991;BME280;31721;41.740;-88.000;2023-04-07T08:48:31;100609.04;;;2.54;40.74
45991;BME280;31721;41.740;-88.000;2023-04-07T08:51:04;100606.28;;;2.49;40.89
45991;BME280;31721;41.740;-88.000;2023-04-07T08:53:36;100605.09;;;2.49;41.02
45991;BME280;31721;41.740;-88.000;2023-04-07T08:56:07;100603.26;;;2.44;40.70
45991;BME280;31721;41.740;-88.000;2023-04-07T08:58:35;100606.34;;;2.44;40.69
45991;BME280;31721;41.740;-88.000;2023-04-07T09:01:04;100606.86;;;2.53;40.72
45991;BME280;31721;41.740;-88.000;2023-04-07T09:03:32;100608.94;;;2.52;40.52
45991;BME280;31721;41.740;-88.000;2023-04-07T09:06:00;100606.06;;;2.46;40.37
45991;BME280;31721;41.740;-88.000;2023-04-07T09:08:29;100606.72;;;2.47;40.25
45991;BME280;31721;41.740;-88.000;2023-04-07T09:10:57;100609.79;;;2.42;40.19
45991;BME280;31721;41.740;-88.000;2023-04-07T09:13:25;100618.01;;;2.49;40.10
45991;BME280;31721;41.740;-88.000;2023-04-07T09:15:52;100617.59;;;2.50;40.15
45991;BME280;31721;41.740;-88.000;2023-04-07T09:18:20;100614.43;;;2.46;40.02
45991;BME280;31721;41.740;-88.000;2023-04-07T09:21:04;100613.76;;;2.56;40.12
45991;BME280;31721;41.740;-88.000;2023-04-07T09:23:35;100614.03;;;2.58;40.22
45991;BME280;31721;41.740;-88.000;2023-04-07T09:26:20;100615.87;;;2.59;40.19
45991;BME280;31721;41.740;-88.000;2023-04-07T09:28:50;100618.50;;;2.63;40.26
45991;BME280;31721;41.740;-88.000;2023-04-07T09:31:18;100615.73;;;2.63;39.97
45991;BME280;31721;41.740;-88.000;2023-04-07T09:33:46;100616.64;;;2.63;39.82
45991;BME280;31721;41.740;-88.000;2023-04-07T09:36:15;100613.30;;;2.68;39.82
45991;BME280;31721;41.740;-88.000;2023-04-07T09:38:43;100620.28;;;2.68;39.81
45991;BME280;31721;41.740;-88.000;2023-04-07T09:41:13;100620.47;;;2.65;39.61
45991;BME280;31721;41.740;-88.000;2023-04-07T09:43:42;100619.03;;;2.83;39.28
45991;BME280;31721;41.740;-88.000;2023-04-07T09:46:12;100617.38;;;2.75;39.47
45991;BME280;31721;41.740;-88.000;2023-04-07T09:48:40;100623.33;;;2.76;39.40
45991;BME280;31721;41.740;-88.000;2023-04-07T09:51:10;100626.55;;;2.79;39.59
45991;BME280;31721;41.740;-88.000;2023-04-07T09:53:47;100628.13;;;2.83;39.49
45991;BME280;31721;41.740;-88.000;2023-04-07T09:56:17;100626.61;;;2.70;39.45
45991;BME280;31721;41.740;-88.000;2023-04-07T09:58:46;100624.48;;;2.84;38.97
45991;BME280;31721;41.740;-88.000;2023-04-07T10:01:15;100621.47;;;2.82;39.21
45991;BME280;31721;41.740;-88.000;2023-04-07T10:03:43;100618.31;;;2.69;39.62
45991;BME280;31721;41.740;-88.000;2023-04-07T10:06:11;100616.07;;;2.80;39.70
45991;BME280;31721;41.740;-88.000;2023-04-07T10:08:41;100616.00;;;2.88;39.37
45991;BME280;31721;41.740;-88.000;2023-04-07T10:11:09;100616.09;;;2.83;39.23
45991;BME280;31721;41.740;-88.000;2023-04-07T10:13:40;100614.54;;;2.89;39.05
45991;BME280;31721;41.740;-88.000;2023-04-07T10:16:08;100615.08;;;2.86;39.04
45991;BME280;31721;41.740;-88.000;2023-04-07T10:18:36;100618.20;;;2.82;39.14
45991;BME280;31721;41.740;-88.000;2023-04-07T10:21:05;100619.52;;;2.67;39.22
45991;BME280;31721;41.740;-88.000;2023-04-07T10:23:46;100620.46;;;2.76;39.19
45991;BME280;31721;41.740;-88.000;2023-04-07T10:26:16;100626.31;;;2.79;39.26
45991;BME280;31721;41.740;-88.000;2023-04-07T10:28:49;100624.21;;;2.71;39.33
45991;BME280;31721;41.740;-88.000;2023-04-07T10:31:18;100621.94;;;2.71;39.13
45991;BME280;31721;41.740;-88.000;2023-04-07T10:33:48;100623.24;;;2.76;38.99
45991;BME280;31721;41.740;-88.000;2023-04-07T10:36:17;100625.91;;;2.77;38.87
45991;BME280;31721;41.740;-88.000;2023-04-07T10:39:19;100632.37;;;2.69;39.08
45991;BME280;31721;41.740;-88.000;2023-04-07T10:41:47;100639.29;;;2.71;39.28
45991;BME280;31721;41.740;-88.000;2023-04-07T10:44:47;100648.61;;;2.79;39.54
45991;BME280;31721;41.740;-88.000;2023-04-07T10:47:15;100659.26;;;2.64;39.36
45991;BME280;31721;41.740;-88.000;2023-04-07T10:50:32;100663.52;;;2.74;39.29
45991;BME280;31721;41.740;-88.000;2023-04-07T10:53:09;100663.61;;;2.74;38.95
45991;BME280;31721;41.740;-88.000;2023-04-07T10:55:38;100662.57;;;2.82;39.21
45991;BME280;31721;41.740;-88.000;2023-04-07T10:58:15;100661.35;;;2.68;39.08
45991;BME280;31721;41.740;-88.000;2023-04-07T11:01:17;100663.54;;;2.61;38.99
45991;BME280;31721;41.740;-88.000;2023-04-07T11:03:55;100673.47;;;2.44;39.07
45991;BME280;31721;41.740;-88.000;2023-04-07T11:06:24;100680.68;;;2.43;39.59
45991;BME280;31721;41.740;-88.000;2023-04-07T11:08:52;100690.21;;;2.44;39.36
45991;BME280;31721;41.740;-88.000;2023-04-07T11:11:35;100694.24;;;2.55;38.95
45991;BME280;31721;41.740;-88.000;2023-04-07T11:14:04;100692.59;;;2.56;39.15
45991;BME280;31721;41.740;-88.000;2023-04-07T11:16:38;100689.79;;;2.47;39.01
45991;BME280;31721;41.740;-88.000;2023-04-07T11:19:05;100686.67;;;2.60;38.73
45991;BME280;31721;41.740;-88.000;2023-04-07T11:21:33;100684.85;;;2.57;39.12
45991;BME280;31721;41.740;-88.000;2023-04-07T11:24:00;100688.14;;;2.60;39.25
45991;BME280;31721;41.740;-88.000;2023-04-07T11:26:29;100696.45;;;2.52;39.13
45991;BME280;31721;41.740;-88.000;2023-04-07T11:29:02;100699.31;;;2.59;39.32
45991;BME280;31721;41.740;-88.000;2023-04-07T11:31:31;100700.65;;;2.58;39.20
45991;BME280;31721;41.740;-88.000;2023-04-07T11:33:59;100695.17;;;2.57;39.40
45991;BME280;31721;41.740;-88.000;2023-04-07T11:36:29;100697.60;;;2.52;39.17
45991;BME280;31721;41.740;-88.000;2023-04-07T11:38:59;100702.56;;;2.44;39.35
45991;BME280;31721;41.740;-88.000;2023-04-07T11:41:28;100711.64;;;2.34;39.81
45991;BME280;31721;41.740;-88.000;2023-04-07T11:44:05;100714.13;;;2.46;39.97
45991;BME280;31721;41.740;-88.000;2023-04-07T11:46:34;100711.56;;;2.45;40.10
45991;BME280;31721;41.740;-88.000;2023-04-07T11:49:11;100712.54;;;2.50;40.39
45991;BME280;31721;41.740;-88.000;2023-04-07T11:51:42;100716.04;;;2.57;40.49
45991;BME280;31721;41.740;-88.000;2023-04-07T11:54:10;100722.81;;;2.61;40.81
45991;BME280;31721;41.740;-88.000;2023-04-07T11:56:44;100727.80;;;2.64;41.03
45991;BME280;31721;41.740;-88.000;2023-04-07T11:59:21;100733.77;;;2.63;41.21
45991;BME280;31721;41.740;-88.000;2023-04-07T12:01:51;100738.47;;;2.75;41.52
45991;BME280;31721;41.740;-88.000;2023-04-07T12:04:19;100741.13;;;2.82;41.46
45991;BME280;31721;41.740;-88.000;2023-04-07T12:06:48;100744.00;;;2.84;41.52
45991;BME280;31721;41.740;-88.000;2023-04-07T12:09:33;100749.31;;;2.80;41.74
45991;BME280;31721;41.740;-88.000;2023-04-07T12:12:03;100756.65;;;3.00;41.81
45991;BME280;31721;41.740;-88.000;2023-04-07T12:14:32;100761.32;;;3.04;41.98
45991;BME280;31721;41.740;-88.000;2023-04-07T12:17:00;100765.06;;;3.05;41.85
45991;BME280;31721;41.740;-88.000;2023-04-07T12:19:30;100761.72;;;3.29;42.09
45991;BME280;31721;41.740;-88.000;2023-04-07T12:21:58;100766.61;;;3.29;42.21
45991;BME280;31721;41.740;-88.000;2023-04-07T12:24:26;100768.18;;;3.43;42.09
45991;BME280;31721;41.740;-88.000;2023-04-07T12:26:55;100769.82;;;3.53;42.45
45991;BME280;31721;41.740;-88.000;2023-04-07T12:29:23;100771.45;;;3.58;43.00
45991;BME280;31721;41.740;-88.000;2023-04-07T12:31:51;100775.02;;;3.71;43.20
45991;BME280;31721;41.740;-88.000;2023-04-07T12:34:19;100779.43;;;3.77;44.24
45991;BME280;31721;41.740;-88.000;2023-04-07T12:36:48;100778.05;;;3.90;44.37
45991;BME280;31721;41.740;-88.000;2023-04-07T12:39:16;100777.77;;;4.01;45.56
45991;BME280;31721;41.740;-88.000;2023-04-07T12:41:44;100775.72;;;3.93;45.00
45991;BME280;31721;41.740;-88.000;2023-04-07T12:44:13;100776.85;;;4.04;46.61
45991;BME280;31721;41.740;-88.000;2023-04-07T12:46:41;100770.73;;;4.13;45.11
45991;BME280;31721;41.740;-88.000;2023-04-07T12:49:09;100776.43;;;4.30;46.10
45991;BME280;31721;41.740;-88.000;2023-04-07T12:51:37;100783.89;;;4.28;45.44